Time;durP1;ratioP1;P1;durP2;ratioP2;P2;SDS_P1;SDS_P2;PMS_P1;PMS_P2;Temp;Humidity;BMP_temperature;BMP_pressure;BME280_temperature;BME280_humidity;BME280_pressure;Samples;Min_cycle;Max_cycle;Signal;HPM_P1;HPM_P2
2021/12/05 05:01:14;;;;;;;66.22;32.70;;;;;;;2.85;100.00;94946.91;5798015;23;20481;-77
2021/12/05 05:03:39;;;;;;;57.22;31.02;;;;;;;2.71;100.00;94972.78;4982179;28;20105;-78
2021/12/05 05:06:11;;;;;;;56.22;28.52;;;;;;;2.67;100.00;94977.31;5011404;28;20464;-80
2021/12/05 05:08:37;;;;;;;48.47;27.75;;;;;;;1.99;100.00;94970.78;4991631;28;20407;-80
2021/12/05 05:11:06;;;;;;;42.75;24.02;;;;;;;2.03;100.00;94979.81;4970272;28;20057;-80
2021/12/05 05:13:33;;;;;;;60.20;32.10;;;;;;;1.92;100.00;94973.94;4983048;28;20030;-79
2021/12/05 05:15:59;;;;;;;58.70;34.72;;;;;;;1.81;100.00;94961.19;4962478;28;20041;-79
2021/12/05 05:18:30;;;;;;;53.28;33.67;;;;;;;1.95;100.00;94977.06;4961591;28;20094;-80
2021/12/05 05:21:08;;;;;;;53.03;33.03;;;;;;;1.85;100.00;94968.50;4990036;28;20030;-82
2021/12/05 05:24:11;;;;;;;51.70;30.98;;;;;;;1.66;100.00;94931.72;4975133;28;20412;-80
2021/12/05 05:48:00;;;;;;;26.52;18.02;;;;;;;1.63;100.00;94916.66;5009007;28;20034;-82
2021/12/05 05:50:26;;;;;;;23.02;15.63;;;;;;;1.90;100.00;94950.25;4998584;28;20023;-83
2021/12/05 05:52:51;;;;;;;23.83;15.40;;;;;;;1.83;100.00;94923.59;4973551;28;20804;-80
2021/12/05 05:55:17;;;;;;;20.48;16.00;;;;;;;1.74;100.00;94880.91;4984123;28;20456;-80
2021/12/05 06:00:35;;;;;;;20.73;14.45;;;;;;;1.72;100.00;94855.50;4983727;28;20056;-81
2021/12/05 06:03:23;;;;;;;29.58;20.42;;;;;;;1.52;100.00;94811.13;4968143;28;20441;-80
2021/12/05 06:05:55;;;;;;;21.25;16.08;;;;;;;1.98;100.00;94876.44;4977861;28;20030;-80
2021/12/05 06:08:24;;;;;;;23.25;15.85;;;;;;;1.80;100.00;94854.94;4981113;28;20034;-79
2021/12/05 06:10:57;;;;;;;23.33;15.88;;;;;;;1.88;100.00;94839.81;4984972;28;20045;-78
2021/12/05 06:13:24;;;;;;;18.25;14.50;;;;;;;2.00;100.00;94823.50;4958402;28;20603;-79
2021/12/05 06:15:51;;;;;;;19.65;15.48;;;;;;;1.75;100.00;94757.47;4958211;28;20034;-79
2021/12/05 06:18:17;;;;;;;23.30;17.25;;;;;;;2.12;100.00;94805.47;4958987;28;20029;-81
2021/12/05 06:20:42;;;;;;;25.55;17.98;;;;;;;2.08;100.00;94788.78;4975779;28;20041;-80
2021/12/05 06:23:10;;;;;;;27.20;16.13;;;;;;;2.45;100.00;94789.13;4970333;28;20034;-80
2021/12/05 06:25:38;;;;;;;19.98;15.55;;;;;;;3.05;100.00;94754.31;4954793;28;20030;-79
2021/12/05 06:28:11;;;;;;;28.10;17.10;;;;;;;3.13;100.00;94693.06;4990717;28;20030;-79
2021/12/05 06:30:47;;;;;;;19.55;16.50;;;;;;;3.75;100.00;94650.91;4973993;28;20098;-79
2021/12/05 06:48:47;;;;;;;11.77;10.55;;;;;;;6.20;100.00;94200.78;4973353;28;20038;-76
2021/12/05 06:51:15;;;;;;;9.75;8.85;;;;;;;7.55;100.00;94189.31;4991022;28;20030;-78
2021/12/05 06:53:41;;;;;;;9.23;8.32;;;;;;;9.01;96.77;94175.88;4961619;28;20503;-81
2021/12/05 06:56:07;;;;;;;10.40;9.35;;;;;;;9.10;93.76;94171.38;4975353;28;20041;-78
2021/12/05 06:58:33;;;;;;;10.93;9.82;;;;;;;7.33;100.00;94188.31;4992850;28;20080;-79
2021/12/05 07:01:01;;;;;;;10.90;9.70;;;;;;;8.13;100.00;94187.88;4992662;28;20103;-81
2021/12/05 07:03:26;;;;;;;14.98;10.70;;;;;;;8.05;96.36;94177.66;5011818;28;20030;-80
2021/12/05 07:08:18;;;;;;;12.70;11.40;;;;;;;8.21;99.95;94185.25;5009809;28;20139;-77
2021/12/05 07:16:28;;;;;;;14.60;13.30;;;;;;;10.24;88.25;94179.09;4999810;28;20042;-75
2021/12/05 07:21:40;;;;;;;12.75;11.50;;;;;;;11.11;82.78;94172.44;5000477;28;20081;-75
2021/12/05 07:24:18;;;;;;;12.77;11.57;;;;;;;12.37;77.63;94177.69;4988809;28;20022;-74
2021/12/05 07:27:02;;;;;;;10.65;9.73;;;;;;;11.67;72.05;94162.63;5008149;28;20026;-75
2021/12/05 07:40:29;;;;;;;10.25;9.35;;;;;;;13.55;63.57;94161.00;4989371;28;20089;-74
2021/12/05 07:42:58;;;;;;;10.23;9.30;;;;;;;13.64;65.24;94165.75;4971744;28;20027;-75
2021/12/05 07:45:31;;;;;;;10.23;9.32;;;;;;;14.72;61.34;94166.34;4971525;28;20076;-75
2021/12/05 07:48:01;;;;;;;9.55;8.73;;;;;;;11.40;73.95;94166.16;4988693;28;20510;-74
2021/12/05 07:50:39;;;;;;;9.75;9.00;;;;;;;13.07;68.91;94174.34;4989172;28;20506;-74
2021/12/05 07:53:10;;;;;;;9.52;8.75;;;;;;;9.21;81.49;94174.31;4988160;28;20380;-74
2021/12/05 07:55:41;;;;;;;10.45;9.55;;;;;;;9.10;84.43;94172.19;4988802;28;20045;-77
2021/12/05 07:58:25;;;;;;;10.70;9.63;;;;;;;7.55;96.61;94171.25;4987057;28;20071;-75
2021/12/05 08:14:42;;;;;;;9.80;9.02;;;;;;;9.31;82.98;94172.22;4987875;28;20041;-77
2021/12/05 08:17:15;;;;;;;9.05;8.35;;;;;;;13.84;65.88;94167.44;4987456;28;20470;-77
2021/12/05 08:19:40;;;;;;;8.98;8.18;;;;;;;12.46;69.93;94162.69;4971100;28;20470;-76
2021/12/05 08:22:05;;;;;;;10.30;9.15;;;;;;;9.22;83.84;94173.31;4987649;28;20022;-76
2021/12/05 08:24:37;;;;;;;8.52;7.72;;;;;;;11.58;80.14;94161.22;4987176;28;20026;-77
2021/12/05 08:27:05;;;;;;;8.30;7.47;;;;;;;12.12;69.36;94161.13;4970590;28;20023;-75
2021/12/05 08:29:44;;;;;;;7.45;6.85;;;;;;;14.02;63.13;94147.47;4986144;28;20034;-75
2021/12/05 08:32:24;;;;;;;7.90;7.20;;;;;;;12.09;65.91;94151.13;4971917;28;20518;-75
2021/12/05 08:43:17;;;;;;;8.65;7.90;;;;;;;8.50;85.54;94180.16;5005965;28;20053;-75
2021/12/05 09:25:00;;;;;;;6.57;5.90;;;;;;;14.17;60.64;94116.72;4986163;28;20081;-73
2021/12/05 09:51:24;;;;;;;7.07;6.55;;;;;;;14.55;56.33;94059.25;4985130;28;20085;-73
2021/12/05 10:10:13;;;;;;;7.70;7.00;;;;;;;11.83;65.87;94026.59;4984081;28;20030;-75
2021/12/05 10:15:45;;;;;;;7.32;6.75;;;;;;;11.89;67.17;94024.00;4986498;28;20038;-75
2021/12/05 10:37:25;;;;;;;10.57;7.18;;;;;;;10.15;77.69;94014.63;5007454;28;20407;-77
2021/12/05 10:40:09;;;;;;;8.63;7.82;;;;;;;9.25;82.17;94019.72;5001996;28;20029;-74
2021/12/05 10:42:47;;;;;;;9.05;8.25;;;;;;;9.35;81.27;94020.22;5000069;28;20030;-76
2021/12/05 10:45:18;;;;;;;8.85;8.05;;;;;;;9.05;82.67;94011.03;4956505;28;20027;-81
2021/12/05 10:47:49;;;;;;;8.18;7.45;;;;;;;9.44;82.05;94019.91;4998936;28;20109;-77
2021/12/05 10:50:44;;;;;;;8.32;7.63;;;;;;;8.63;84.42;94017.75;4990138;28;20026;-80
2021/12/05 10:53:31;;;;;;;8.18;7.32;;;;;;;9.18;82.16;94006.78;4989063;28;20034;-78
2021/12/05 10:56:08;;;;;;;9.15;7.80;;;;;;;9.26;83.26;94016.16;4983003;28;20519;-79
2021/12/05 10:58:39;;;;;;;7.05;6.45;;;;;;;9.44;82.57;94006.97;4996534;28;20042;-78
2021/12/05 11:01:18;;;;;;;11.00;8.07;;;;;;;8.58;85.06;94002.00;4995176;28;20035;-78
2021/12/05 11:03:48;;;;;;;11.63;7.60;;;;;;;8.84;85.19;94010.03;4987095;28;20116;-77
2021/12/05 11:06:31;;;;;;;13.77;11.68;;;;;;;8.59;86.79;93997.66;5004130;28;20200;-75
2021/12/05 11:09:03;;;;;;;16.60;11.65;;;;;;;8.45;86.31;93988.94;4974845;28;20026;-75
2021/12/05 11:11:30;;;;;;;11.73;9.43;;;;;;;8.09;87.56;93967.50;4983375;28;20033;-75
2021/12/05 11:13:58;;;;;;;9.63;8.63;;;;;;;8.53;87.56;93996.59;5002568;28;20062;-76
2021/12/05 11:16:37;;;;;;;9.35;8.32;;;;;;;9.05;84.58;93980.03;5002885;28;20034;-79
2021/12/05 11:19:17;;;;;;;9.13;8.23;;;;;;;8.86;85.06;93971.13;4983563;28;20030;-80
2021/12/05 11:21:48;;;;;;;7.90;7.10;;;;;;;8.84;85.74;93973.88;4982538;28;20038;-78
2021/12/05 11:24:21;;;;;;;11.82;8.55;;;;;;;9.43;83.31;93948.56;4996404;28;20034;-81
2021/12/05 11:27:12;;;;;;;7.78;7.13;;;;;;;9.18;83.04;93964.66;5002414;28;20555;-79
2021/12/05 11:30:03;;;;;;;7.85;6.97;;;;;;;8.99;84.05;93972.03;4981585;28;20038;-78
2021/12/05 11:32:41;;;;;;;9.25;7.93;;;;;;;9.02;84.04;93939.91;4982927;28;20105;-78
2021/12/05 11:35:25;;;;;;;7.78;7.07;;;;;;;8.87;83.53;93958.03;4996211;28;20030;-79
2021/12/05 11:38:12;;;;;;;7.28;6.38;;;;;;;9.03;84.05;93967.28;5008157;28;20578;-79
2021/12/05 11:41:11;;;;;;;6.93;6.22;;;;;;;9.11;84.22;93949.09;5011080;28;20034;-80
2021/12/05 11:43:43;;;;;;;8.05;6.90;;;;;;;8.40;84.68;93930.19;4967877;28;20082;-78
2021/12/05 11:46:20;;;;;;;6.80;6.20;;;;;;;8.64;86.55;93946.28;4986626;28;20057;-77
2021/12/05 11:48:55;;;;;;;7.30;6.38;;;;;;;8.96;85.78;93944.00;4988134;28;20037;-78
2021/12/05 11:51:30;;;;;;;8.00;6.55;;;;;;;8.96;85.43;93940.59;4988301;28;20037;-78
2021/12/05 11:54:28;;;;;;;7.45;6.25;;;;;;;8.97;84.31;93935.28;4998954;28;20054;-78
2021/12/05 11:57:00;;;;;;;7.10;6.40;;;;;;;9.27;85.39;93927.38;5004901;28;20053;-79
2021/12/05 11:59:30;;;;;;;8.65;7.85;;;;;;;8.36;86.75;93925.56;4968916;28;20022;-80
2021/12/05 12:02:14;;;;;;;11.02;7.65;;;;;;;8.12;86.98;93853.66;4999074;28;20080;-75
2021/12/05 12:04:47;;;;;;;7.72;6.82;;;;;;;8.12;87.45;93895.72;5011759;28;20036;-79
2021/12/05 12:07:23;;;;;;;8.07;7.15;;;;;;;7.79;88.50;93858.47;5028552;28;20033;-79
2021/12/05 12:09:53;;;;;;;9.10;8.15;;;;;;;7.90;88.28;93873.44;5013137;28;20030;-76
2021/12/05 12:12:19;;;;;;;8.27;7.50;;;;;;;8.16;88.44;93890.97;4994963;28;20462;-75
2021/12/05 12:14:45;;;;;;;10.10;7.72;;;;;;;8.07;88.72;93877.41;5030958;28;20033;-77
2021/12/05 12:17:16;;;;;;;8.45;7.65;;;;;;;8.34;88.42;93899.16;4997216;28;20121;-75
2021/12/05 12:19:46;;;;;;;7.50;6.85;;;;;;;8.41;87.85;93900.03;4992985;28;20041;-76
2021/12/05 12:22:13;;;;;;;9.23;8.38;;;;;;;8.31;87.27;93873.72;4991948;28;20022;-82
2021/12/05 12:24:40;;;;;;;9.50;8.32;;;;;;;8.00;88.55;93865.41;5012070;28;20507;-77
2021/12/05 12:27:07;;;;;;;9.38;7.82;;;;;;;8.34;88.94;93901.75;4976390;28;20030;-77
2021/12/05 12:29:37;;;;;;;9.85;8.82;;;;;;;7.91;89.55;93868.13;4992868;28;20029;-76
2021/12/05 12:32:11;;;;;;;9.68;8.82;;;;;;;8.14;89.33;93895.53;4991004;28;20079;-77
2021/12/05 12:34:37;;;;;;;11.98;8.85;;;;;;;8.15;90.22;93897.94;4975169;28;20042;-77
2021/12/05 12:37:08;;;;;;;11.18;8.73;;;;;;;7.97;90.28;93854.50;4993263;28;20045;-80
2021/12/05 12:39:38;;;;;;;11.18;9.20;;;;;;;8.13;90.64;93907.63;4992615;28;20064;-76
2021/12/05 12:42:19;;;;;;;9.68;8.77;;;;;;;8.14;90.08;93874.91;4975591;28;20065;-78
2021/12/05 12:45:13;;;;;;;9.80;8.95;;;;;;;8.26;90.63;93902.59;5006622;28;20052;-76
2021/12/05 12:47:53;;;;;;;14.52;11.18;;;;;;;8.27;91.32;93904.22;4992332;28;20148;-77
2021/12/05 12:50:22;;;;;;;10.30;8.35;;;;;;;8.21;90.92;93893.84;4990858;28;20052;-75
2021/12/05 12:53:14;;;;;;;10.88;9.10;;;;;;;7.29;92.36;93799.97;4994206;28;20044;-78
2021/12/05 12:55:51;;;;;;;9.77;8.77;;;;;;;7.98;93.22;93886.25;5001938;28;20042;-76
2021/12/05 12:58:49;;;;;;;9.52;8.70;;;;;;;7.88;93.34;93894.25;4974068;28;20034;-81
2021/12/05 13:01:38;;;;;;;12.35;9.77;;;;;;;7.81;92.71;93890.81;5008751;28;20077;-77
2021/12/05 13:12:45;;;;;;;10.48;9.43;;;;;;;7.56;93.84;93873.25;5006435;28;20044;-76
2021/12/05 13:15:36;;;;;;;10.07;9.07;;;;;;;7.75;93.99;93898.44;4990715;28;20045;-76
2021/12/05 13:18:15;;;;;;;11.77;8.27;;;;;;;7.65;93.38;93877.31;4986890;28;20042;-77
2021/12/05 13:20:41;;;;;;;8.90;7.78;;;;;;;7.72;94.29;93906.53;4971204;28;20042;-75
2021/12/05 13:23:12;;;;;;;7.95;7.25;;;;;;;7.88;93.80;93896.84;4969740;28;20041;-75
2021/12/05 13:26:15;;;;;;;8.43;7.72;;;;;;;7.61;94.93;93888.97;4988676;28;20627;-77
2021/12/05 13:28:53;;;;;;;10.15;8.20;;;;;;;7.21;94.92;93836.94;4971874;28;20108;-79
2021/12/05 13:31:29;;;;;;;9.18;8.38;;;;;;;7.48;95.47;93884.44;4957821;28;20125;-78
2021/12/05 13:34:20;;;;;;;9.73;8.68;;;;;;;7.41;96.29;93883.56;4991749;28;20034;-80
2021/12/05 13:37:00;;;;;;;11.57;9.55;;;;;;;7.42;96.40;93867.91;4968241;28;20510;-77
2021/12/05 13:39:47;;;;;;;11.48;9.25;;;;;;;7.31;96.73;93886.41;4991250;28;20029;-79
2021/12/05 13:42:34;;;;;;;10.55;9.55;;;;;;;7.14;97.80;93884.16;4973464;28;20030;-77
2021/12/05 13:44:59;;;;;;;10.82;9.85;;;;;;;7.11;98.39;93889.66;4972216;28;20996;-80
2021/12/05 13:47:41;;;;;;;9.00;8.02;;;;;;;7.15;98.57;93898.63;5007420;28;20037;-76
2021/12/05 13:50:21;;;;;;;10.15;9.02;;;;;;;7.14;98.74;93889.31;5006791;28;20026;-78
2021/12/05 13:52:52;;;;;;;9.57;8.68;;;;;;;7.10;99.30;93893.19;5006026;28;20050;-75
2021/12/05 13:55:44;;;;;;;10.85;9.20;;;;;;;6.82;99.88;93868.06;4998534;28;20030;-76
2021/12/05 13:58:49;;;;;;;9.00;8.10;;;;;;;7.07;99.51;93903.84;4984759;28;20030;-75
2021/12/05 14:01:28;;;;;;;11.88;9.20;;;;;;;7.01;99.90;93902.78;4985518;28;20065;-75
2021/12/05 14:04:08;;;;;;;8.50;7.40;;;;;;;6.96;100.00;93896.56;4986308;28;20408;-75
2021/12/05 14:06:43;;;;;;;9.93;8.15;;;;;;;6.95;100.00;93912.97;4985297;28;20030;-75
2021/12/05 14:09:08;;;;;;;9.73;8.73;;;;;;;6.79;100.00;93917.28;4985926;28;20041;-75
2021/12/05 14:11:43;;;;;;;10.15;9.15;;;;;;;6.51;100.00;93887.94;4985522;28;20532;-76
2021/12/05 14:14:09;;;;;;;11.80;8.73;;;;;;;6.57;100.00;93922.47;4985345;28;20136;-76
2021/12/05 14:16:38;;;;;;;14.88;9.70;;;;;;;6.45;100.00;93895.53;4961067;28;20075;-76
2021/12/05 14:19:06;;;;;;;11.20;9.40;;;;;;;6.56;100.00;93928.56;4951754;28;20031;-76
2021/12/05 14:21:32;;;;;;;11.52;9.63;;;;;;;6.49;100.00;93931.03;4968501;28;20096;-75
2021/12/05 14:24:00;;;;;;;11.52;9.40;;;;;;;6.32;100.00;93911.53;4967446;28;20040;-75
2021/12/05 14:26:27;;;;;;;11.35;10.13;;;;;;;6.17;100.00;93914.03;4968101;28;20038;-75
2021/12/05 14:29:11;;;;;;;11.13;10.02;;;;;;;6.22;100.00;93918.69;4985502;28;20033;-75
2021/12/05 14:31:41;;;;;;;11.65;10.45;;;;;;;6.27;100.00;93913.81;4987908;28;20037;-75
2021/12/05 14:34:09;;;;;;;11.32;9.68;;;;;;;6.16;100.00;93911.66;4987975;28;20569;-75
2021/12/05 14:36:44;;;;;;;14.95;10.50;;;;;;;6.08;100.00;93917.63;5004181;28;20037;-75
2021/12/05 14:39:21;;;;;;;11.82;10.60;;;;;;;5.99;100.00;93915.28;4987718;28;20029;-75
2021/12/05 14:41:50;;;;;;;13.40;10.90;;;;;;;5.85;100.00;93896.19;5004525;28;20029;-75
2021/12/05 14:44:17;;;;;;;15.07;11.35;;;;;;;5.97;100.00;93917.22;5000447;28;20026;-76
2021/12/05 14:46:48;;;;;;;11.88;10.20;;;;;;;5.76;100.00;93884.38;4968562;28;20084;-76
2021/12/05 14:49:14;;;;;;;17.30;11.50;;;;;;;5.80;100.00;93893.34;4968773;28;20084;-79
2021/12/05 14:51:43;;;;;;;14.50;10.77;;;;;;;5.77;100.00;93914.22;4968547;28;20030;-78
2021/12/05 14:54:08;;;;;;;14.27;11.85;;;;;;;5.73;100.00;93912.94;4967092;28;20022;-75
2021/12/05 14:56:37;;;;;;;14.50;12.55;;;;;;;5.63;100.00;93910.59;4967566;28;20045;-76
2021/12/05 14:59:09;;;;;;;16.17;12.38;;;;;;;5.65;100.00;93920.69;4966429;28;20034;-75
2021/12/05 15:01:37;;;;;;;17.50;13.23;;;;;;;5.66;100.00;93907.69;4973877;28;20069;-80
2021/12/05 15:04:05;;;;;;;17.85;13.48;;;;;;;5.59;100.00;93914.44;4969102;28;20081;-78
2021/12/05 15:06:42;;;;;;;19.67;13.15;;;;;;;5.69;100.00;93916.81;4968457;28;20480;-78
2021/12/05 15:09:22;;;;;;;13.65;12.18;;;;;;;5.61;100.00;93927.13;4970517;28;20089;-77
2021/12/05 15:12:01;;;;;;;16.70;13.13;;;;;;;5.64;100.00;93913.97;4970019;28;20027;-80
2021/12/05 15:14:27;;;;;;;16.13;11.68;;;;;;;5.64;100.00;93926.78;4953181;28;20031;-77
2021/12/05 15:17:08;;;;;;;16.13;11.75;;;;;;;5.57;100.00;93931.78;4971434;28;20397;-77
2021/12/05 15:19:37;;;;;;;18.15;13.25;;;;;;;5.61;100.00;93945.09;4951941;28;20042;-78
2021/12/05 15:22:04;;;;;;;17.23;13.10;;;;;;;5.57;100.00;93942.06;4951989;28;20031;-77
2021/12/05 15:24:30;;;;;;;17.70;12.10;;;;;;;5.50;100.00;93933.41;4968817;28;20033;-77
2021/12/05 15:26:59;;;;;;;18.92;12.00;;;;;;;5.46;100.00;93914.16;4952276;28;20097;-80
2021/12/05 15:29:31;;;;;;;14.73;13.18;;;;;;;5.64;100.00;93922.47;4956346;28;20117;-78
2021/12/05 15:31:57;;;;;;;14.88;12.82;;;;;;;5.57;100.00;93934.38;4952050;28;20075;-77
2021/12/05 15:34:29;;;;;;;15.38;13.20;;;;;;;5.43;100.00;93918.81;4949426;29;20505;-78
2021/12/05 15:36:56;;;;;;;17.40;12.20;;;;;;;5.17;100.00;93886.50;4956377;28;20030;-80
